Time;durP1;ratioP1;P1;durP2;ratioP2;P2;SDS_P1;SDS_P2;PMS_P1;PMS_P2;Temp;Humidity;BMP_temperature;BMP_pressure;BME280_temperature;BME280_humidity;BME280_pressure;Samples;Min_cycle;Max_cycle;Signal;HPM_P1;HPM_P2
2021/09/21 00:02:25;;;;;;;24.58;10.45;;;9.30;99.90;;;;;;5019133;28;20475;-79
2021/09/21 00:04:54;;;;;;;26.02;9.85;;;9.40;99.90;;;;;;5026281;28;20041;-79
2021/09/21 00:07:21;;;;;;;22.25;9.85;;;9.40;99.90;;;;;;5013805;28;20084;-79
2021/09/21 00:09:52;;;;;;;20.50;11.13;;;9.40;99.90;;;;;;5014075;28;20053;-79
2021/09/21 00:12:18;;;;;;;24.20;10.25;;;9.50;99.90;;;;;;5016249;28;20072;-79
2021/09/21 00:14:45;;;;;;;26.88;9.48;;;9.40;99.90;;;;;;5013713;28;20133;-79
2021/09/21 00:17:12;;;;;;;19.52;9.93;;;9.50;99.90;;;;;;5031482;28;20073;-79
2021/09/21 00:19:39;;;;;;;20.77;9.27;;;9.50;99.90;;;;;;5013975;28;20084;-80
2021/09/21 00:22:05;;;;;;;22.20;9.82;;;9.40;99.90;;;;;;5024021;28;20095;-79
2021/09/21 00:24:32;;;;;;;35.85;10.05;;;9.50;99.90;;;;;;5019214;28;20053;-79
2021/09/21 00:26:59;;;;;;;20.23;9.27;;;9.50;99.90;;;;;;5025458;28;20148;-80
2021/09/21 00:29:26;;;;;;;16.63;8.30;;;9.40;99.90;;;;;;5018579;28;20108;-78
2021/09/21 00:32:00;;;;;;;18.77;8.77;;;9.40;99.90;;;;;;5019863;28;20056;-80
2021/09/21 00:34:37;;;;;;;19.65;9.05;;;9.40;99.90;;;;;;5029915;28;20490;-79
2021/09/21 00:37:10;;;;;;;20.55;8.30;;;9.40;99.90;;;;;;5031015;28;20045;-78
2021/09/21 00:39:38;;;;;;;16.67;7.80;;;9.40;99.90;;;;;;5012758;28;20487;-79
2021/09/21 00:42:06;;;;;;;24.27;9.00;;;9.40;99.90;;;;;;5019125;28;20100;-79
2021/09/21 00:44:35;;;;;;;16.92;8.50;;;9.50;99.90;;;;;;5031442;28;20654;-80
2021/09/21 00:47:03;;;;;;;17.38;8.10;;;9.50;99.90;;;;;;5024231;28;20139;-79
2021/09/21 00:49:32;;;;;;;19.92;8.45;;;9.40;99.90;;;;;;5030075;28;20525;-79
2021/09/21 00:51:59;;;;;;;17.40;8.38;;;9.40;99.90;;;;;;5025085;28;20132;-79
2021/09/21 00:54:27;;;;;;;20.63;8.45;;;9.50;99.90;;;;;;5030400;28;20497;-79
2021/09/21 00:56:56;;;;;;;20.67;8.95;;;9.50;99.90;;;;;;5014801;28;20072;-79
2021/09/21 00:59:23;;;;;;;19.73;8.93;;;9.50;99.90;;;;;;5031196;28;20048;-80
2021/09/21 01:01:50;;;;;;;18.77;8.23;;;9.60;99.90;;;;;;5030729;28;20471;-80
2021/09/21 01:04:17;;;;;;;17.45;8.35;;;9.60;99.90;;;;;;5014086;28;20140;-79
2021/09/21 01:06:44;;;;;;;19.73;8.30;;;9.60;99.90;;;;;;5030365;28;20781;-78
2021/09/21 01:09:22;;;;;;;18.80;8.18;;;9.60;99.90;;;;;;5023997;28;20144;-78
2021/09/21 01:11:52;;;;;;;22.60;9.90;;;9.60;99.90;;;;;;5013532;28;20693;-79
2021/09/21 01:14:20;;;;;;;17.75;8.82;;;9.60;99.90;;;;;;5030871;28;20081;-79
2021/09/21 01:16:48;;;;;;;18.90;9.10;;;9.60;99.90;;;;;;5029630;28;20513;-78
2021/09/21 01:19:15;;;;;;;20.15;8.95;;;9.60;99.90;;;;;;5023243;28;20129;-80
2021/09/21 01:21:44;;;;;;;18.88;8.65;;;9.60;99.90;;;;;;5022343;28;20045;-80
2021/09/21 01:24:13;;;;;;;21.58;9.68;;;9.60;99.90;;;;;;5013570;28;20099;-80
2021/09/21 01:26:40;;;;;;;20.23;9.38;;;9.60;99.90;;;;;;5030978;28;20103;-80
2021/09/21 01:29:07;;;;;;;23.42;10.15;;;9.60;99.90;;;;;;5030299;28;20088;-80
2021/09/21 01:31:34;;;;;;;22.38;8.98;;;9.70;99.90;;;;;;5015400;28;20140;-79
2021/09/21 01:34:02;;;;;;;18.02;9.10;;;9.60;99.90;;;;;;5031124;28;20496;-80
2021/09/21 01:36:30;;;;;;;21.58;9.35;;;9.60;99.90;;;;;;5030854;28;21435;-81
2021/09/21 01:38:57;;;;;;;22.48;9.95;;;9.60;99.90;;;;;;5021463;28;20050;-79
2021/09/21 01:41:25;;;;;;;18.15;9.07;;;9.70;99.90;;;;;;5019610;28;20132;-80
2021/09/21 01:43:52;;;;;;;23.20;9.35;;;9.60;99.90;;;;;;5009821;28;20444;-79
2021/09/21 01:46:21;;;;;;;20.10;8.57;;;9.70;99.90;;;;;;5012882;28;20053;-80
2021/09/21 01:48:49;;;;;;;21.42;9.60;;;9.70;99.90;;;;;;5024133;28;20096;-79
2021/09/21 01:51:25;;;;;;;18.88;8.98;;;9.70;99.90;;;;;;5013026;28;20081;-80
2021/09/21 01:59:28;;;;;;;24.42;9.27;;;9.80;99.90;;;;;;5030722;28;20712;-79
2021/09/21 02:01:55;;;;;;;20.10;8.93;;;9.80;99.90;;;;;;5034174;28;20132;-79
2021/09/21 02:04:22;;;;;;;23.20;8.40;;;9.90;99.90;;;;;;5017050;28;20395;-79
2021/09/21 02:06:49;;;;;;;17.10;8.80;;;9.90;99.90;;;;;;5016615;28;20113;-80
2021/09/21 02:09:15;;;;;;;20.00;9.32;;;9.90;99.90;;;;;;5016158;28;20084;-79
2021/09/21 02:11:45;;;;;;;15.20;8.20;;;9.90;99.90;;;;;;5008865;28;20488;-79
2021/09/21 02:14:14;;;;;;;16.67;8.15;;;9.90;99.90;;;;;;5033916;28;20081;-80
2021/09/21 02:16:42;;;;;;;21.70;8.68;;;9.90;99.90;;;;;;5016734;28;20102;-79
2021/09/21 02:19:10;;;;;;;16.55;8.05;;;9.90;99.90;;;;;;5023812;28;20077;-79
2021/09/21 02:21:36;;;;;;;17.27;8.65;;;10.00;99.90;;;;;;5025712;28;20091;-79
2021/09/21 02:24:04;;;;;;;21.50;8.63;;;10.00;99.90;;;;;;5028759;28;20096;-79
2021/09/21 02:26:30;;;;;;;18.13;7.45;;;10.10;99.90;;;;;;5016270;28;20469;-79
2021/09/21 02:28:57;;;;;;;18.38;8.35;;;10.00;99.90;;;;;;5024422;28;20077;-79
2021/09/21 02:31:24;;;;;;;17.40;7.97;;;10.10;99.90;;;;;;5032001;28;20046;-80
2021/09/21 02:33:51;;;;;;;19.42;7.30;;;10.10;99.90;;;;;;5032613;28;20132;-79
2021/09/21 02:36:18;;;;;;;18.23;7.20;;;10.10;99.90;;;;;;5032829;28;20077;-80
2021/09/21 02:38:45;;;;;;;18.00;7.43;;;10.10;99.90;;;;;;5015735;28;20128;-79
2021/09/21 02:41:12;;;;;;;18.63;7.40;;;10.10;99.90;;;;;;5014941;28;20159;-79
2021/09/21 02:43:39;;;;;;;14.30;7.93;;;10.00;99.90;;;;;;5017572;28;20080;-79
2021/09/21 02:46:06;;;;;;;16.42;7.13;;;10.10;99.90;;;;;;5033718;28;20119;-79
2021/09/21 02:48:33;;;;;;;18.95;7.45;;;10.10;99.90;;;;;;5031949;28;20140;-79
2021/09/21 02:51:00;;;;;;;16.35;6.97;;;10.10;99.90;;;;;;5030122;28;20124;-79
2021/09/21 02:53:27;;;;;;;15.38;7.53;;;10.10;99.90;;;;;;5014943;28;20095;-79
2021/09/21 02:55:53;;;;;;;13.93;6.80;;;10.10;99.90;;;;;;5032785;28;20570;-79
2021/09/21 02:58:20;;;;;;;13.68;7.18;;;10.20;99.90;;;;;;5033148;28;20412;-79
2021/09/21 03:00:50;;;;;;;16.40;7.78;;;10.20;99.90;;;;;;5021888;28;20144;-79
2021/09/21 03:03:17;;;;;;;18.65;7.80;;;10.20;99.90;;;;;;5020926;28;20151;-79
2021/09/21 03:05:53;;;;;;;11.75;6.57;;;10.20;99.90;;;;;;5032709;28;20069;-79
2021/09/21 03:08:23;;;;;;;11.90;6.40;;;10.20;99.90;;;;;;5033180;28;20132;-79
2021/09/21 03:11:12;;;;;;;15.48;6.88;;;10.20;99.90;;;;;;5033049;28;20084;-79
2021/09/21 03:18:57;;;;;;;15.00;8.57;;;10.10;99.90;;;;;;5032721;28;20076;-79
2021/09/21 03:21:24;;;;;;;16.58;7.97;;;10.20;99.90;;;;;;5017515;28;20049;-79
2021/09/21 03:23:53;;;;;;;14.43;7.30;;;10.20;99.90;;;;;;5000628;28;20513;-79
2021/09/21 03:26:21;;;;;;;15.07;7.55;;;10.20;99.90;;;;;;5003273;28;20107;-79
2021/09/21 03:28:48;;;;;;;16.02;7.03;;;10.20;99.90;;;;;;5014237;28;20049;-79
2021/09/21 03:31:16;;;;;;;17.13;7.45;;;10.30;99.90;;;;;;5028224;28;20140;-78
2021/09/21 03:33:42;;;;;;;18.88;7.72;;;10.30;99.90;;;;;;5032428;28;20137;-79
2021/09/21 03:36:11;;;;;;;16.55;8.02;;;10.30;99.90;;;;;;5027381;28;20088;-79
2021/09/21 03:38:38;;;;;;;15.43;7.35;;;10.30;99.90;;;;;;5031636;28;20100;-79
2021/09/21 03:41:04;;;;;;;16.25;7.10;;;10.30;99.90;;;;;;5031969;28;20129;-79
2021/09/21 03:43:31;;;;;;;14.35;7.18;;;10.30;99.90;;;;;;5014281;28;20228;-79
2021/09/21 03:45:57;;;;;;;17.80;7.75;;;10.30;99.90;;;;;;5013903;28;20073;-79
2021/09/21 03:48:24;;;;;;;14.27;7.38;;;10.40;99.90;;;;;;5031355;28;20112;-79
2021/09/21 03:50:51;;;;;;;16.20;6.78;;;10.40;99.90;;;;;;5031824;28;20057;-79
2021/09/21 03:53:18;;;;;;;16.80;6.88;;;10.30;99.90;;;;;;5028962;28;20537;-79
2021/09/21 03:55:47;;;;;;;12.68;7.38;;;10.30;99.90;;;;;;5013761;28;20448;-79
2021/09/21 03:58:14;;;;;;;14.82;7.88;;;10.30;99.90;;;;;;5028160;28;20085;-79
2021/09/21 04:00:42;;;;;;;15.13;8.05;;;10.30;99.90;;;;;;5031372;28;20755;-79
2021/09/21 04:03:11;;;;;;;16.70;8.00;;;10.30;99.90;;;;;;5029216;28;20057;-79
2021/09/21 04:05:38;;;;;;;18.75;8.43;;;10.30;99.90;;;;;;5029149;28;20085;-79
2021/09/21 04:08:05;;;;;;;15.43;8.18;;;10.20;99.90;;;;;;5016226;28;20085;-79
2021/09/21 04:10:31;;;;;;;13.10;7.60;;;10.30;99.90;;;;;;5013201;28;20624;-79
2021/09/21 04:12:59;;;;;;;15.18;7.95;;;10.20;99.90;;;;;;5013964;28;20087;-79
2021/09/21 04:15:26;;;;;;;14.23;8.00;;;10.20;99.90;;;;;;5030121;28;20108;-78
2021/09/21 04:17:52;;;;;;;17.30;7.50;;;10.20;99.90;;;;;;5030621;28;20124;-79
2021/09/21 04:20:19;;;;;;;17.73;7.40;;;10.20;99.90;;;;;;5030522;28;20322;-79
2021/09/21 04:22:47;;;;;;;17.33;8.32;;;10.20;99.90;;;;;;5017503;28;20091;-78
2021/09/21 04:25:16;;;;;;;24.15;7.45;;;10.10;99.90;;;;;;5031576;28;20091;-79
2021/09/21 04:27:43;;;;;;;22.88;7.70;;;10.10;99.90;;;;;;5030886;28;20095;-79
2021/09/21 04:30:13;;;;;;;15.95;8.18;;;10.10;99.90;;;;;;5030153;28;20045;-79
2021/09/21 04:32:39;;;;;;;18.27;8.02;;;10.20;99.90;;;;;;5030442;28;20053;-80
2021/09/21 04:35:07;;;;;;;19.88;8.68;;;10.20;99.90;;;;;;5031451;28;20081;-79
2021/09/21 04:37:33;;;;;;;15.15;7.97;;;10.20;99.90;;;;;;5024684;28;21561;-79
2021/09/21 04:40:00;;;;;;;13.65;7.82;;;10.30;99.90;;;;;;5030935;28;20518;-79
2021/09/21 04:42:27;;;;;;;16.08;8.15;;;10.30;99.90;;;;;;5013643;28;20549;-79
2021/09/21 04:44:55;;;;;;;18.13;8.32;;;10.40;99.90;;;;;;5024107;28;20142;-79
2021/09/21 04:47:22;;;;;;;25.35;8.82;;;10.30;99.90;;;;;;5020433;28;20049;-80
2021/09/21 04:49:49;;;;;;;24.42;9.55;;;10.40;99.90;;;;;;5031319;28;20137;-80
2021/09/21 04:52:16;;;;;;;22.35;9.23;;;10.40;99.90;;;;;;5018582;28;20135;-80
2021/09/21 04:54:43;;;;;;;20.15;9.40;;;10.40;99.90;;;;;;5024691;28;20572;-81
2021/09/21 04:57:10;;;;;;;22.95;9.80;;;10.40;99.90;;;;;;5025089;28;20132;-80
2021/09/21 04:59:39;;;;;;;16.35;8.90;;;10.40;99.90;;;;;;5028068;28;20061;-79
2021/09/21 05:02:06;;;;;;;18.83;8.82;;;10.50;99.90;;;;;;5016970;28;20146;-78
2021/09/21 05:04:33;;;;;;;21.58;9.20;;;10.50;99.90;;;;;;5013764;28;20045;-81
2021/09/21 05:07:00;;;;;;;20.55;8.82;;;10.40;99.90;;;;;;5022971;28;20096;-84
2021/09/21 05:09:26;;;;;;;21.65;9.30;;;10.50;99.90;;;;;;5016882;28;20123;-83
2021/09/21 05:11:53;;;;;;;23.55;9.52;;;10.50;99.90;;;;;;5018242;28;20088;-89
2021/09/21 05:14:20;;;;;;;16.52;8.35;;;10.70;99.90;;;;;;5030932;28;20081;-83
2021/09/21 05:16:47;;;;;;;23.65;9.18;;;10.60;99.90;;;;;;5013877;28;20081;-88
2021/09/21 05:19:14;;;;;;;21.73;8.40;;;10.60;99.90;;;;;;5014053;28;20486;-88
2021/09/21 05:21:45;;;;;;;15.23;8.57;;;10.60;99.90;;;;;;5014005;28;20363;-88
2021/09/21 05:24:12;;;;;;;19.67;9.45;;;10.70;99.90;;;;;;5014243;28;20076;-85
2021/09/21 05:26:39;;;;;;;16.08;8.13;;;10.70;99.90;;;;;;5016961;28;20085;-85
2021/09/21 05:29:12;;;;;;;18.60;8.38;;;10.70;99.90;;;;;;5013385;28;20096;-85
2021/09/21 05:31:39;;;;;;;20.35;9.98;;;10.80;99.90;;;;;;5013376;28;20061;-83
2021/09/21 05:34:06;;;;;;;15.40;9.32;;;10.70;99.90;;;;;;5017365;28;20190;-81
2021/09/21 05:36:32;;;;;;;18.55;9.30;;;10.80;99.90;;;;;;5019829;28;20131;-82
2021/09/21 05:39:00;;;;;;;25.58;9.95;;;10.60;99.90;;;;;;5033575;28;20558;-80
2021/09/21 05:41:26;;;;;;;21.40;9.27;;;10.70;99.90;;;;;;5027612;28;20136;-85
2021/09/21 05:43:53;;;;;;;17.88;8.90;;;10.70;99.90;;;;;;5016789;28;20449;-85
2021/09/21 05:46:29;;;;;;;23.42;9.40;;;10.70;99.90;;;;;;5034162;28;20073;-85
2021/09/21 05:48:59;;;;;;;20.52;9.00;;;10.70;99.90;;;;;;5021950;28;20111;-86
2021/09/21 05:51:28;;;;;;;19.90;9.13;;;10.70;99.90;;;;;;5034842;28;20053;-86
2021/09/21 05:53:55;;;;;;;20.80;9.85;;;10.70;99.90;;;;;;5033253;28;20053;-85
2021/09/21 05:56:22;;;;;;;20.85;9.75;;;10.70;99.90;;;;;;5028408;28;20753;-86
2021/09/21 05:58:49;;;;;;;18.27;8.77;;;10.80;99.90;;;;;;5034914;28;20053;-86
2021/09/21 06:01:17;;;;;;;19.00;8.52;;;10.60;99.90;;;;;;5017531;28;20105;-86
2021/09/21 06:03:44;;;;;;;20.60;8.95;;;10.60;99.90;;;;;;5034375;28;20049;-84
2021/09/21 06:06:11;;;;;;;22.50;9.57;;;10.70;99.90;;;;;;5034681;28;20453;-85
2021/09/21 06:08:38;;;;;;;24.02;9.05;;;10.60;99.90;;;;;;5015672;28;20133;-84
2021/09/21 06:11:05;;;;;;;19.80;9.30;;;10.60;99.90;;;;;;5016696;28;20095;-84
2021/09/21 06:13:31;;;;;;;21.25;9.10;;;10.60;99.90;;;;;;5013680;28;20084;-84
2021/09/21 06:15:58;;;;;;;29.63;9.27;;;10.90;99.90;;;;;;5016715;28;20137;-84
2021/09/21 06:18:25;;;;;;;18.13;8.55;;;11.10;99.90;;;;;;5016763;28;20063;-85
2021/09/21 06:20:55;;;;;;;16.92;8.43;;;11.10;99.90;;;;;;5016858;28;20123;-84
2021/09/21 06:23:22;;;;;;;23.30;9.95;;;11.20;99.90;;;;;;5034423;28;20466;-85
2021/09/21 06:25:48;;;;;;;18.55;8.93;;;11.30;99.90;;;;;;5019992;28;20140;-84
2021/09/21 06:28:15;;;;;;;21.25;8.50;;;11.30;99.90;;;;;;5016644;28;20122;-84
2021/09/21 06:30:42;;;;;;;25.38;9.15;;;11.40;99.90;;;;;;5034096;28;20188;-84
2021/09/21 06:33:09;;;;;;;21.90;9.93;;;11.40;99.90;;;;;;5016902;28;20140;-83
2021/09/21 06:35:36;;;;;;;20.90;8.77;;;11.40;99.90;;;;;;5016220;28;20096;-84
2021/09/21 06:38:03;;;;;;;16.02;8.75;;;11.40;99.90;;;;;;5016924;28;20077;-84
2021/09/21 06:40:29;;;;;;;16.15;8.95;;;11.50;99.90;;;;;;5015778;28;20069;-84
2021/09/21 06:42:56;;;;;;;19.58;9.27;;;11.40;99.90;;;;;;5015973;28;20124;-84
2021/09/21 06:45:23;;;;;;;19.85;8.80;;;11.60;99.90;;;;;;5016085;28;20132;-84
2021/09/21 06:47:50;;;;;;;16.90;9.07;;;11.70;99.90;;;;;;5015971;28;20124;-84
2021/09/21 06:50:17;;;;;;;20.10;9.43;;;11.70;99.90;;;;;;5016403;28;20161;-84
2021/09/21 06:52:43;;;;;;;19.27;8.82;;;11.90;99.90;;;;;;5016184;28;20398;-84
2021/09/21 06:55:11;;;;;;;20.65;9.35;;;12.20;99.90;;;;;;5027048;28;20085;-83
2021/09/21 06:57:38;;;;;;;19.02;9.95;;;12.20;99.90;;;;;;5032537;28;20073;-83
2021/09/21 07:00:09;;;;;;;19.52;9.35;;;12.20;99.90;;;;;;5026771;28;20081;-84
2021/09/21 07:02:37;;;;;;;20.70;9.68;;;12.10;99.90;;;;;;5008785;28;20487;-84
2021/09/21 07:05:05;;;;;;;19.08;9.95;;;12.20;99.90;;;;;;5008412;28;20127;-83
2021/09/21 07:07:32;;;;;;;18.40;9.00;;;12.40;99.90;;;;;;5011891;28;20053;-83
2021/09/21 07:09:59;;;;;;;17.13;8.70;;;12.40;99.90;;;;;;5012516;28;20152;-84
2021/09/21 07:12:25;;;;;;;19.30;8.82;;;12.40;99.90;;;;;;5015791;28;20081;-84
2021/09/21 07:14:52;;;;;;;17.15;8.57;;;12.50;99.90;;;;;;5015635;28;20662;-84
2021/09/21 07:17:19;;;;;;;15.20;7.75;;;12.50;99.90;;;;;;5027698;28;20085;-84
2021/09/21 07:19:46;;;;;;;20.08;8.52;;;12.40;99.90;;;;;;5028958;28;20073;-84
2021/09/21 07:22:12;;;;;;;17.52;8.80;;;12.30;99.90;;;;;;5015844;28;20132;-84
2021/09/21 07:24:39;;;;;;;21.98;8.93;;;12.20;99.90;;;;;;5024109;28;20084;-84
2021/09/21 07:27:06;;;;;;;17.02;9.57;;;12.20;99.90;;;;;;5031902;28;20088;-84
2021/09/21 07:29:33;;;;;;;21.50;8.48;;;12.40;99.90;;;;;;5031871;28;20144;-84
2021/09/21 07:32:02;;;;;;;27.13;8.82;;;12.50;99.90;;;;;;5016607;28;20076;-84
2021/09/21 07:34:29;;;;;;;20.80;9.10;;;12.60;99.90;;;;;;5015413;28;20781;-84
2021/09/21 07:36:56;;;;;;;22.15;9.27;;;12.70;99.90;;;;;;5024843;28;20049;-84
2021/09/21 07:39:23;;;;;;;17.58;9.38;;;12.60;99.90;;;;;;5031491;28;20041;-84
2021/09/21 07:41:51;;;;;;;29.75;9.43;;;12.80;99.90;;;;;;5019598;28;20041;-84
2021/09/21 07:44:17;;;;;;;16.10;9.25;;;12.80;99.90;;;;;;5014798;28;20073;-84
2021/09/21 07:46:44;;;;;;;18.55;9.10;;;12.90;99.90;;;;;;5032710;28;20053;-86
2021/09/21 07:49:11;;;;;;;19.23;8.82;;;12.90;99.90;;;;;;5032388;28;20088;-84
2021/09/21 07:51:38;;;;;;;15.45;8.63;;;12.90;99.90;;;;;;5015375;28;20132;-85
2021/09/21 07:54:08;;;;;;;17.38;9.30;;;12.80;99.90;;;;;;5018992;28;20084;-84
2021/09/21 07:56:35;;;;;;;21.90;9.63;;;12.90;99.90;;;;;;5031058;28;20682;-84
2021/09/21 07:59:04;;;;;;;20.38;8.80;;;13.00;99.90;;;;;;5030080;28;20503;-84
2021/09/21 08:01:32;;;;;;;28.67;8.73;;;12.90;99.90;;;;;;5024521;28;20478;-84
2021/09/21 08:04:05;;;;;;;21.15;8.95;;;13.00;99.90;;;;;;5016208;28;20041;-84
2021/09/21 08:06:33;;;;;;;15.43;7.85;;;13.20;99.90;;;;;;5021371;28;20186;-84
2021/09/21 08:08:59;;;;;;;22.88;8.18;;;13.20;99.90;;;;;;5030990;28;20057;-85
2021/09/21 08:11:27;;;;;;;19.52;8.57;;;13.10;99.90;;;;;;5009311;28;20064;-85
2021/09/21 08:13:54;;;;;;;20.83;12.57;;;13.20;99.90;;;;;;5005501;28;20073;-85
2021/09/21 08:16:21;;;;;;;17.17;8.50;;;13.30;99.90;;;;;;5014287;28;20084;-85
2021/09/21 08:18:49;;;;;;;21.27;8.82;;;13.40;99.90;;;;;;5014723;28;20076;-85
2021/09/21 08:21:16;;;;;;;14.88;7.72;;;13.40;99.90;;;;;;5014587;28;20081;-84
2021/09/21 08:23:42;;;;;;;22.35;8.20;;;13.40;99.90;;;;;;5014627;28;20088;-85
2021/09/21 08:26:09;;;;;;;17.35;7.32;;;13.40;99.90;;;;;;5017784;28;20111;-85
2021/09/21 08:28:36;;;;;;;10.90;7.25;;;13.50;99.90;;;;;;5021745;28;20058;-85
2021/09/21 08:31:03;;;;;;;15.20;8.55;;;13.50;99.90;;;;;;5014480;28;20081;-85
2021/09/21 08:33:30;;;;;;;15.95;8.07;;;13.60;99.90;;;;;;5014929;28;20057;-86
2021/09/21 08:36:17;;;;;;;18.70;7.90;;;13.60;99.90;;;;;;5022860;28;20893;-85
2021/09/21 08:38:43;;;;;;;20.65;8.32;;;13.70;99.90;;;;;;5030500;28;20111;-85
2021/09/21 08:41:10;;;;;;;19.13;8.65;;;13.90;99.90;;;;;;5028879;28;20080;-86
2021/09/21 08:43:37;;;;;;;13.85;8.73;;;14.00;99.90;;;;;;5014005;28;20494;-85
2021/09/21 08:46:04;;;;;;;14.27;7.60;;;13.90;99.90;;;;;;5014522;28;20152;-85
2021/09/21 08:48:31;;;;;;;21.52;8.00;;;14.10;99.90;;;;;;5031540;28;20050;-85
2021/09/21 08:50:58;;;;;;;13.95;6.97;;;14.30;99.90;;;;;;5031866;28;20053;-85
2021/09/21 08:53:24;;;;;;;12.18;7.00;;;14.20;99.90;;;;;;5031359;28;20095;-85
2021/09/21 08:55:51;;;;;;;14.85;7.55;;;14.10;99.90;;;;;;5013642;28;20053;-85
2021/09/21 08:58:25;;;;;;;17.88;7.78;;;14.10;99.90;;;;;;5013699;28;20125;-86
2021/09/21 09:00:52;;;;;;;11.90;7.20;;;14.00;99.90;;;;;;5013342;28;20073;-85
2021/09/21 09:03:19;;;;;;;19.98;7.22;;;14.10;99.90;;;;;;5013618;28;20065;-85
2021/09/21 09:05:53;;;;;;;17.83;7.63;;;14.10;99.90;;;;;;5031511;28;20053;-86
2021/09/21 09:08:32;;;;;;;17.92;8.07;;;14.00;99.90;;;;;;5013339;28;20227;-84
2021/09/21 09:11:22;;;;;;;11.85;6.85;;;14.00;99.90;;;;;;5018527;28;20099;-86
2021/09/21 09:14:00;;;;;;;12.02;6.70;;;14.10;99.90;;;;;;5017751;28;20136;-85
2021/09/21 09:16:32;;;;;;;14.65;7.90;;;14.10;99.90;;;;;;5028495;28;20065;-85
2021/09/21 09:19:07;;;;;;;14.02;7.35;;;14.40;99.90;;;;;;5030880;28;20091;-85
2021/09/21 09:21:40;;;;;;;12.05;6.72;;;14.60;99.90;;;;;;5034277;28;20128;-85
2021/09/21 09:24:09;;;;;;;18.08;7.47;;;14.40;99.90;;;;;;5017816;28;20061;-85
2021/09/21 09:26:39;;;;;;;15.93;7.35;;;14.50;99.90;;;;;;5017125;28;20127;-86
2021/09/21 09:29:08;;;;;;;19.98;8.75;;;14.50;99.90;;;;;;5018933;28;20502;-86
2021/09/21 09:31:37;;;;;;;16.45;7.30;;;14.50;99.90;;;;;;5035009;28;20049;-86
2021/09/21 09:34:12;;;;;;;14.38;7.05;;;14.70;99.90;;;;;;5018498;28;20079;-85
2021/09/21 09:37:05;;;;;;;72.85;10.77;;;14.90;99.90;;;;;;5017773;28;20123;-85
2021/09/21 09:39:32;;;;;;;10.68;6.78;;;15.40;99.90;;;;;;5013391;28;20068;-85
2021/09/21 09:42:00;;;;;;;14.40;6.00;;;15.60;99.90;;;;;;5015990;28;20084;-85
2021/09/21 09:44:29;;;;;;;8.90;5.47;;;15.60;99.90;;;;;;5017637;28;20088;-85
2021/09/21 09:47:00;;;;;;;8.70;5.25;;;15.40;99.90;;;;;;5017559;28;20103;-86
2021/09/21 09:49:42;;;;;;;8.68;5.40;;;15.50;99.90;;;;;;5017393;28;20662;-85
2021/09/21 09:52:14;;;;;;;12.15;5.82;;;15.90;99.90;;;;;;5016831;28;20088;-85
2021/09/21 09:54:46;;;;;;;14.45;5.65;;;16.00;99.90;;;;;;5017707;28;20730;-85
2021/09/21 09:57:14;;;;;;;8.80;5.68;;;16.00;99.90;;;;;;5016816;28;20128;-86
2021/09/21 09:59:42;;;;;;;11.80;6.40;;;15.80;99.90;;;;;;5016951;28;20463;-86
2021/09/21 10:02:09;;;;;;;8.52;5.40;;;15.50;99.90;;;;;;5017222;28;20050;-85
2021/09/21 10:04:39;;;;;;;11.45;5.68;;;15.40;99.90;;;;;;5017119;28;20073;-85
2021/09/21 10:07:07;;;;;;;16.35;5.90;;;15.50;99.90;;;;;;5034921;28;20057;-85
2021/09/21 10:09:34;;;;;;;8.27;4.45;;;15.40;99.90;;;;;;5034038;28;20094;-85
2021/09/21 10:12:03;;;;;;;21.45;5.80;;;15.40;99.90;;;;;;5034240;28;20127;-86
2021/09/21 10:14:30;;;;;;;24.35;6.30;;;15.40;99.90;;;;;;5016863;28;20089;-85
2021/09/21 10:17:08;;;;;;;8.27;4.90;;;15.50;99.90;;;;;;5016742;28;20645;-86
2021/09/21 10:19:37;;;;;;;23.95;5.72;;;15.50;99.90;;;;;;5015788;28;20056;-85
2021/09/21 10:22:06;;;;;;;12.35;5.97;;;15.80;99.90;;;;;;5033641;28;20061;-86
2021/09/21 10:24:38;;;;;;;44.40;9.30;;;15.70;99.90;;;;;;5017252;28;20484;-85
2021/09/21 10:27:09;;;;;;;16.15;4.85;;;16.10;99.90;;;;;;5017030;28;20069;-86
2021/09/21 10:29:38;;;;;;;6.57;4.30;;;16.60;99.90;;;;;;5017617;28;20104;-86
2021/09/21 10:32:11;;;;;;;5.45;4.05;;;17.40;99.90;;;;;;5019813;28;20131;-86
2021/09/21 10:34:40;;;;;;;9.20;3.97;;;17.10;99.90;;;;;;5034581;28;20152;-85
2021/09/21 10:37:07;;;;;;;11.90;4.00;;;16.90;99.90;;;;;;5026777;28;20132;-87
2021/09/21 10:39:33;;;;;;;6.68;3.70;;;16.80;99.90;;;;;;5019421;28;20065;-87
2021/09/21 10:42:05;;;;;;;8.52;4.18;;;16.80;99.90;;;;;;5013306;28;20136;-86
2021/09/21 10:44:35;;;;;;;7.10;3.40;;;17.10;99.90;;;;;;5034073;28;20050;-85
2021/09/21 10:47:06;;;;;;;8.13;4.28;;;17.10;99.90;;;;;;5010658;28;20073;-86
2021/09/21 10:49:39;;;;;;;6.43;3.97;;;17.20;99.90;;;;;;5016278;28;20053;-85
2021/09/21 10:52:09;;;;;;;9.30;4.20;;;17.20;99.90;;;;;;5024022;28;20140;-86
2021/09/21 10:54:43;;;;;;;8.68;3.85;;;17.20;99.90;;;;;;5033845;28;20769;-86
2021/09/21 10:57:38;;;;;;;11.05;4.07;;;17.10;99.90;;;;;;5019895;28;20088;-86
2021/09/21 11:00:05;;;;;;;8.48;3.80;;;17.20;99.90;;;;;;5007849;28;20072;-86
2021/09/21 11:02:38;;;;;;;8.55;3.63;;;16.90;99.90;;;;;;5026030;28;20064;-86
2021/09/21 11:05:08;;;;;;;7.15;4.05;;;16.70;99.90;;;;;;5016885;28;20486;-86
2021/09/21 11:07:37;;;;;;;8.57;3.90;;;16.40;99.90;;;;;;5016859;28;20046;-86
2021/09/21 11:10:05;;;;;;;12.55;4.32;;;16.20;99.90;;;;;;5016196;28;20137;-86
2021/09/21 11:12:32;;;;;;;9.90;3.55;;;15.80;99.90;;;;;;5020884;28;20048;-85
2021/09/21 11:15:07;;;;;;;11.52;4.22;;;15.60;99.90;;;;;;5015883;28;20384;-85
2021/09/21 11:17:35;;;;;;;14.65;4.40;;;15.40;99.90;;;;;;5030741;28;20092;-85
2021/09/21 11:20:03;;;;;;;8.18;4.40;;;15.50;99.90;;;;;;5032476;28;20049;-86
2021/09/21 11:22:30;;;;;;;8.73;4.10;;;15.40;99.90;;;;;;5032202;28;20053;-85
2021/09/21 11:25:03;;;;;;;9.13;4.40;;;15.60;99.90;;;;;;5032585;28;20115;-86
2021/09/21 11:27:30;;;;;;;16.95;5.93;;;15.60;99.90;;;;;;5031973;28;20758;-86
2021/09/21 11:30:03;;;;;;;10.75;4.45;;;15.40;99.90;;;;;;5033008;28;20077;-87
2021/09/21 11:32:30;;;;;;;9.63;4.40;;;15.30;99.90;;;;;;5015532;28;20077;-86
2021/09/21 11:35:10;;;;;;;12.13;4.65;;;15.20;99.90;;;;;;5015622;28;20095;-86
2021/09/21 11:37:40;;;;;;;13.65;5.20;;;15.20;99.90;;;;;;5015629;28;20053;-86
2021/09/21 11:40:09;;;;;;;14.10;5.25;;;15.20;99.90;;;;;;5015615;28;20076;-85
2021/09/21 11:42:37;;;;;;;13.98;4.72;;;15.00;99.90;;;;;;5015440;28;20773;-85
2021/09/21 11:45:10;;;;;;;13.50;5.20;;;14.90;99.90;;;;;;5028982;28;20124;-85
2021/09/21 11:47:40;;;;;;;9.75;5.05;;;14.80;99.90;;;;;;5031662;28;20136;-86
2021/09/21 11:50:17;;;;;;;11.00;5.10;;;14.70;99.90;;;;;;5022896;28;20080;-85
2021/09/21 11:52:52;;;;;;;12.55;4.93;;;14.60;99.90;;;;;;5032949;28;20084;-85
2021/09/21 11:55:24;;;;;;;11.13;5.57;;;14.50;99.90;;;;;;5015617;28;20081;-85
2021/09/21 11:57:52;;;;;;;11.15;5.28;;;14.40;99.90;;;;;;5033134;28;20053;-86
2021/09/21 12:00:22;;;;;;;12.27;5.25;;;14.20;99.90;;;;;;5014540;28;20049;-86
2021/09/21 12:02:53;;;;;;;8.32;5.10;;;14.20;99.90;;;;;;5015227;28;20144;-85
2021/09/21 12:05:21;;;;;;;13.70;5.80;;;14.10;99.90;;;;;;5014842;28;20136;-85
2021/09/21 12:07:49;;;;;;;9.93;5.50;;;14.20;99.90;;;;;;5024858;28;20134;-86
2021/09/21 12:10:17;;;;;;;10.73;4.60;;;14.30;99.90;;;;;;5010994;28;20103;-86
2021/09/21 12:12:44;;;;;;;8.32;4.20;;;14.00;99.90;;;;;;5012518;28;20088;-85
2021/09/21 12:15:12;;;;;;;8.45;4.38;;;14.10;99.90;;;;;;5010045;28;20144;-85
2021/09/21 12:17:42;;;;;;;8.68;5.47;;;13.90;99.90;;;;;;5010330;28;20057;-85
2021/09/21 12:20:11;;;;;;;10.77;5.05;;;13.80;99.90;;;;;;5011273;28;20140;-86
2021/09/21 12:22:39;;;;;;;11.10;5.65;;;13.50;99.90;;;;;;5019549;28;20509;-86
2021/09/21 12:25:10;;;;;;;9.82;4.85;;;13.50;99.90;;;;;;5025210;28;20168;-86
2021/09/21 12:27:38;;;;;;;10.77;5.30;;;13.40;99.90;;;;;;5030284;28;20088;-85
2021/09/21 12:30:07;;;;;;;8.85;5.43;;;13.30;99.90;;;;;;5031855;28;20045;-85
2021/09/21 12:32:36;;;;;;;10.13;5.82;;;13.20;99.90;;;;;;5018553;28;20088;-85
2021/09/21 12:35:08;;;;;;;9.98;5.90;;;13.10;99.90;;;;;;5030097;28;20084;-85
2021/09/21 12:37:40;;;;;;;12.48;5.80;;;13.20;99.90;;;;;;5029616;28;20057;-85
2021/09/21 12:40:12;;;;;;;14.20;7.70;;;13.30;99.90;;;;;;5013376;28;20061;-85
2021/09/21 12:42:42;;;;;;;10.20;6.10;;;13.40;99.90;;;;;;5019189;28;20155;-85
2021/09/21 12:45:11;;;;;;;12.02;6.32;;;13.40;99.90;;;;;;5031006;28;20045;-85
2021/09/21 12:47:41;;;;;;;10.32;6.78;;;13.40;99.90;;;;;;5029716;28;20049;-85
2021/09/21 12:50:16;;;;;;;15.45;6.60;;;13.40;99.90;;;;;;5031465;28;20088;-84
2021/09/21 12:52:56;;;;;;;10.88;6.78;;;13.20;99.90;;;;;;5025685;28;20076;-85
2021/09/21 12:55:42;;;;;;;9.25;6.20;;;13.10;99.90;;;;;;5030053;28;20124;-85
2021/09/21 12:58:12;;;;;;;13.20;6.75;;;13.10;99.90;;;;;;4990181;28;20143;-84
2021/09/21 13:00:41;;;;;;;14.18;7.13;;;13.20;99.90;;;;;;5005093;28;20543;-84